sensor_id;sensor_type;location;lat;lon;timestamp;P1;durP1;ratioP1;P2;durP2;ratioP2
63906;SDS011;50075;49.484;11.238;2022-08-11T00:01:25;36.13;;;6.85;;
63906;SDS011;50075;49.484;11.238;2022-08-11T00:03:56;52.22;;;8.50;;
63906;SDS011;50075;49.484;11.238;2022-08-11T00:08:59;32.38;;;6.72;;
63906;SDS011;50075;49.484;11.238;2022-08-11T00:14:04;34.20;;;6.78;;
63906;SDS011;50075;49.484;11.238;2022-08-11T00:16:38;27.48;;;6.38;;
63906;SDS011;50075;49.484;11.238;2022-08-11T00:19:05;37.00;;;7.47;;
63906;SDS011;50075;49.484;11.238;2022-08-11T00:21:32;29.55;;;6.35;;
63906;SDS011;50075;49.484;11.238;2022-08-11T00:24:07;36.60;;;7.13;;
63906;SDS011;50075;49.484;11.238;2022-08-11T00:26:33;27.50;;;6.28;;
63906;SDS011;50075;49.484;11.238;2022-08-11T00:29:07;39.65;;;7.43;;
63906;SDS011;50075;49.484;11.238;2022-08-11T00:31:36;28.35;;;6.43;;
63906;SDS011;50075;49.484;11.238;2022-08-11T00:34:03;33.33;;;6.50;;
63906;SDS011;50075;49.484;11.238;2022-08-11T00:36:54;26.58;;;6.57;;
63906;SDS011;50075;49.484;11.238;2022-08-11T00:39:30;32.58;;;7.20;;
63906;SDS011;50075;49.484;11.238;2022-08-11T00:42:39;29.75;;;6.80;;
63906;SDS011;50075;49.484;11.238;2022-08-11T01:26:13;32.58;;;6.57;;
63906;SDS011;50075;49.484;11.238;2022-08-11T01:46:14;36.38;;;6.97;;
63906;SDS011;50075;49.484;11.238;2022-08-11T01:49:24;27.92;;;6.15;;
63906;SDS011;50075;49.484;11.238;2022-08-11T01:52:05;31.90;;;6.78;;
63906;SDS011;50075;49.484;11.238;2022-08-11T01:54:43;25.30;;;5.90;;
63906;SDS011;50075;49.484;11.238;2022-08-11T02:00:25;27.90;;;6.40;;
63906;SDS011;50075;49.484;11.238;2022-08-11T02:03:05;35.33;;;6.70;;
63906;SDS011;50075;49.484;11.238;2022-08-11T02:11:24;33.22;;;7.05;;
63906;SDS011;50075;49.484;11.238;2022-08-11T02:14:02;32.00;;;6.72;;
63906;SDS011;50075;49.484;11.238;2022-08-11T02:19:23;39.50;;;7.40;;
63906;SDS011;50075;49.484;11.238;2022-08-11T02:22:20;39.70;;;7.47;;
63906;SDS011;50075;49.484;11.238;2022-08-11T02:25:19;32.55;;;6.78;;
63906;SDS011;50075;49.484;11.238;2022-08-11T02:27:55;27.25;;;6.25;;
63906;SDS011;50075;49.484;11.238;2022-08-11T02:30:28;36.45;;;6.78;;
63906;SDS011;50075;49.484;11.238;2022-08-11T02:49:46;39.90;;;7.55;;
63906;SDS011;50075;49.484;11.238;2022-08-11T02:52:24;34.08;;;6.75;;
63906;SDS011;50075;49.484;11.238;2022-08-11T02:55:08;29.67;;;6.53;;
63906;SDS011;50075;49.484;11.238;2022-08-11T02:57:49;31.15;;;6.20;;
63906;SDS011;50075;49.484;11.238;2022-08-11T03:00:18;31.58;;;6.63;;
63906;SDS011;50075;49.484;11.238;2022-08-11T03:02:56;36.28;;;6.95;;
63906;SDS011;50075;49.484;11.238;2022-08-11T03:08:42;27.75;;;6.15;;
63906;SDS011;50075;49.484;11.238;2022-08-11T03:14:39;36.10;;;6.97;;
63906;SDS011;50075;49.484;11.238;2022-08-11T03:31:20;38.03;;;7.18;;
63906;SDS011;50075;49.484;11.238;2022-08-11T03:33:59;33.67;;;7.15;;
63906;SDS011;50075;49.484;11.238;2022-08-11T03:44:47;29.00;;;6.13;;
63906;SDS011;50075;49.484;11.238;2022-08-11T03:53:17;36.92;;;7.88;;
63906;SDS011;50075;49.484;11.238;2022-08-11T03:58:36;26.90;;;5.82;;
63906;SDS011;50075;49.484;11.238;2022-08-11T04:15:07;29.05;;;6.15;;
63906;SDS011;50075;49.484;11.238;2022-08-11T04:18:00;28.08;;;6.38;;
63906;SDS011;50075;49.484;11.238;2022-08-11T04:41:07;35.30;;;6.85;;
63906;SDS011;50075;49.484;11.238;2022-08-11T04:58:35;26.92;;;6.20;;
63906;SDS011;50075;49.484;11.238;2022-08-11T05:12:35;29.73;;;6.30;;
63906;SDS011;50075;49.484;11.238;2022-08-11T05:15:12;32.55;;;6.90;;
63906;SDS011;50075;49.484;11.238;2022-08-11T05:18:18;30.45;;;6.63;;
63906;SDS011;50075;49.484;11.238;2022-08-11T05:21:09;34.88;;;6.97;;
63906;SDS011;50075;49.484;11.238;2022-08-11T05:24:29;24.60;;;5.80;;
63906;SDS011;50075;49.484;11.238;2022-08-11T05:27:08;32.80;;;6.65;;
63906;SDS011;50075;49.484;11.238;2022-08-11T05:30:01;29.17;;;6.22;;
63906;SDS011;50075;49.484;11.238;2022-08-11T05:32:58;22.52;;;5.70;;
63906;SDS011;50075;49.484;11.238;2022-08-11T05:35:46;33.92;;;6.35;;
63906;SDS011;50075;49.484;11.238;2022-08-11T05:38:20;29.40;;;6.38;;
63906;SDS011;50075;49.484;11.238;2022-08-11T05:41:10;34.97;;;6.32;;
63906;SDS011;50075;49.484;11.238;2022-08-11T05:43:56;28.40;;;6.18;;
63906;SDS011;50075;49.484;11.238;2022-08-11T05:46:42;22.15;;;5.70;;
63906;SDS011;50075;49.484;11.238;2022-08-11T05:49:31;29.42;;;6.32;;
63906;SDS011;50075;49.484;11.238;2022-08-11T05:52:16;25.27;;;5.47;;
63906;SDS011;50075;49.484;11.238;2022-08-11T05:55:06;26.02;;;6.05;;
63906;SDS011;50075;49.484;11.238;2022-08-11T05:57:55;21.92;;;5.60;;
63906;SDS011;50075;49.484;11.238;2022-08-11T06:00:23;18.77;;;5.45;;
63906;SDS011;50075;49.484;11.238;2022-08-11T06:02:52;18.33;;;5.07;;
63906;SDS011;50075;49.484;11.238;2022-08-11T06:05:20;19.60;;;5.03;;
63906;SDS011;50075;49.484;11.238;2022-08-11T06:07:46;19.30;;;5.15;;
63906;SDS011;50075;49.484;11.238;2022-08-11T06:10:13;18.50;;;4.85;;
63906;SDS011;50075;49.484;11.238;2022-08-11T06:12:51;17.40;;;4.80;;
63906;SDS011;50075;49.484;11.238;2022-08-11T06:15:19;15.15;;;4.50;;
63906;SDS011;50075;49.484;11.238;2022-08-11T06:17:45;19.42;;;5.07;;
63906;SDS011;50075;49.484;11.238;2022-08-11T06:20:15;15.60;;;4.63;;
63906;SDS011;50075;49.484;11.238;2022-08-11T06:22:43;15.80;;;4.45;;
63906;SDS011;50075;49.484;11.238;2022-08-11T06:25:11;18.50;;;4.82;;
63906;SDS011;50075;49.484;11.238;2022-08-11T06:27:39;14.50;;;4.80;;
63906;SDS011;50075;49.484;11.238;2022-08-11T06:30:06;19.98;;;5.00;;
63906;SDS011;50075;49.484;11.238;2022-08-11T06:32:39;16.92;;;5.03;;
63906;SDS011;50075;49.484;11.238;2022-08-11T06:46:24;15.45;;;4.70;;
63906;SDS011;50075;49.484;11.238;2022-08-11T06:48:53;16.08;;;4.85;;
63906;SDS011;50075;49.484;11.238;2022-08-11T06:51:20;15.00;;;4.38;;
63906;SDS011;50075;49.484;11.238;2022-08-11T06:53:50;13.30;;;4.22;;
63906;SDS011;50075;49.484;11.238;2022-08-11T06:56:24;13.40;;;4.25;;
63906;SDS011;50075;49.484;11.238;2022-08-11T06:59:11;13.60;;;4.22;;
63906;SDS011;50075;49.484;11.238;2022-08-11T07:02:11;15.10;;;4.78;;
63906;SDS011;50075;49.484;11.238;2022-08-11T07:04:50;11.73;;;3.53;;
63906;SDS011;50075;49.484;11.238;2022-08-11T07:13:30;10.27;;;3.42;;
63906;SDS011;50075;49.484;11.238;2022-08-11T07:16:19;11.18;;;3.95;;
63906;SDS011;50075;49.484;11.238;2022-08-11T07:18:52;10.43;;;3.38;;
63906;SDS011;50075;49.484;11.238;2022-08-11T07:21:42;8.60;;;3.70;;
63906;SDS011;50075;49.484;11.238;2022-08-11T07:27:43;11.60;;;3.33;;
63906;SDS011;50075;49.484;11.238;2022-08-11T07:30:36;9.07;;;3.45;;
63906;SDS011;50075;49.484;11.238;2022-08-11T07:33:04;7.18;;;3.38;;
63906;SDS011;50075;49.484;11.238;2022-08-11T07:35:32;9.10;;;3.92;;
63906;SDS011;50075;49.484;11.238;2022-08-11T07:38:01;7.00;;;3.20;;
63906;SDS011;50075;49.484;11.238;2022-08-11T07:40:32;9.65;;;3.80;;
63906;SDS011;50075;49.484;11.238;2022-08-11T07:42:58;6.68;;;3.00;;
63906;SDS011;50075;49.484;11.238;2022-08-11T07:45:25;10.40;;;3.30;;
63906;SDS011;50075;49.484;11.238;2022-08-11T07:48:10;12.07;;;3.53;;
63906;SDS011;50075;49.484;11.238;2022-08-11T07:50:57;10.43;;;3.50;;
63906;SDS011;50075;49.484;11.238;2022-08-11T07:53:42;12.70;;;3.97;;
63906;SDS011;50075;49.484;11.238;2022-08-11T07:56:08;15.60;;;3.45;;
63906;SDS011;50075;49.484;11.238;2022-08-11T07:58:35;13.73;;;3.92;;
63906;SDS011;50075;49.484;11.238;2022-08-11T08:01:21;11.40;;;3.33;;
63906;SDS011;50075;49.484;11.238;2022-08-11T08:04:08;9.93;;;3.50;;
63906;SDS011;50075;49.484;11.238;2022-08-11T08:06:54;13.32;;;3.60;;
63906;SDS011;50075;49.484;11.238;2022-08-11T08:09:39;13.35;;;3.25;;
63906;SDS011;50075;49.484;11.238;2022-08-11T08:12:24;14.10;;;3.35;;
63906;SDS011;50075;49.484;11.238;2022-08-11T08:15:10;10.43;;;3.22;;
63906;SDS011;50075;49.484;11.238;2022-08-11T08:17:56;13.48;;;3.58;;
63906;SDS011;50075;49.484;11.238;2022-08-11T08:20:25;10.30;;;3.00;;
63906;SDS011;50075;49.484;11.238;2022-08-11T08:22:58;15.55;;;3.80;;
63906;SDS011;50075;49.484;11.238;2022-08-11T08:25:26;9.43;;;3.20;;
63906;SDS011;50075;49.484;11.238;2022-08-11T08:28:08;14.27;;;4.10;;
63906;SDS011;50075;49.484;11.238;2022-08-11T08:30:35;11.50;;;3.20;;
63906;SDS011;50075;49.484;11.238;2022-08-11T08:36:01;11.05;;;3.17;;
63906;SDS011;50075;49.484;11.238;2022-08-11T08:41:21;11.45;;;3.00;;
63906;SDS011;50075;49.484;11.238;2022-08-11T08:43:49;13.20;;;3.20;;
63906;SDS011;50075;49.484;11.238;2022-08-11T08:46:18;12.75;;;3.03;;
63906;SDS011;50075;49.484;11.238;2022-08-11T08:48:49;16.02;;;3.53;;
63906;SDS011;50075;49.484;11.238;2022-08-11T08:51:15;12.38;;;3.58;;
63906;SDS011;50075;49.484;11.238;2022-08-11T08:54:13;16.45;;;3.67;;
63906;SDS011;50075;49.484;11.238;2022-08-11T08:56:41;15.05;;;3.95;;
63906;SDS011;50075;49.484;11.238;2022-08-11T08:59:08;17.15;;;3.75;;
63906;SDS011;50075;49.484;11.238;2022-08-11T09:01:47;16.70;;;3.97;;
63906;SDS011;50075;49.484;11.238;2022-08-11T09:04:17;16.55;;;3.85;;
63906;SDS011;50075;49.484;11.238;2022-08-11T09:06:44;14.32;;;3.55;;
63906;SDS011;50075;49.484;11.238;2022-08-11T09:09:12;16.02;;;3.65;;
63906;SDS011;50075;49.484;11.238;2022-08-11T09:11:42;15.18;;;3.40;;
63906;SDS011;50075;49.484;11.238;2022-08-11T09:14:15;10.30;;;3.17;;
63906;SDS011;50075;49.484;11.238;2022-08-11T09:16:42;13.85;;;3.45;;
63906;SDS011;50075;49.484;11.238;2022-08-11T09:19:09;11.75;;;3.65;;
63906;SDS011;50075;49.484;11.238;2022-08-11T09:21:35;14.70;;;4.00;;
63906;SDS011;50075;49.484;11.238;2022-08-11T09:24:06;10.52;;;2.92;;
63906;SDS011;50075;49.484;11.238;2022-08-11T09:26:50;10.75;;;3.00;;
63906;SDS011;50075;49.484;11.238;2022-08-11T09:29:27;15.27;;;3.78;;
63906;SDS011;50075;49.484;11.238;2022-08-11T09:31:53;13.75;;;3.33;;
63906;SDS011;50075;49.484;11.238;2022-08-11T09:34:21;14.65;;;3.35;;
63906;SDS011;50075;49.484;11.238;2022-08-11T09:36:47;14.85;;;3.60;;
63906;SDS011;50075;49.484;11.238;2022-08-11T09:39:31;13.15;;;3.35;;
63906;SDS011;50075;49.484;11.238;2022-08-11T09:42:20;10.20;;;3.22;;
63906;SDS011;50075;49.484;11.238;2022-08-11T09:44:45;13.23;;;3.70;;
63906;SDS011;50075;49.484;11.238;2022-08-11T09:47:19;14.90;;;3.70;;
63906;SDS011;50075;49.484;11.238;2022-08-11T09:49:46;17.38;;;4.07;;
63906;SDS011;50075;49.484;11.238;2022-08-11T09:52:13;12.55;;;3.40;;
63906;SDS011;50075;49.484;11.238;2022-08-11T09:54:40;13.30;;;3.35;;
63906;SDS011;50075;49.484;11.238;2022-08-11T09:57:06;13.45;;;3.75;;
63906;SDS011;50075;49.484;11.238;2022-08-11T09:59:51;16.30;;;3.75;;
63906;SDS011;50075;49.484;11.238;2022-08-11T10:02:17;10.65;;;3.40;;
63906;SDS011;50075;49.484;11.238;2022-08-11T10:04:49;15.82;;;4.00;;
63906;SDS011;50075;49.484;11.238;2022-08-11T10:07:39;13.80;;;3.50;;
63906;SDS011;50075;49.484;11.238;2022-08-11T10:10:14;12.50;;;3.35;;
63906;SDS011;50075;49.484;11.238;2022-08-11T10:12:41;16.45;;;3.75;;
63906;SDS011;50075;49.484;11.238;2022-08-11T10:15:14;17.85;;;3.72;;
63906;SDS011;50075;49.484;11.238;2022-08-11T10:17:59;19.77;;;4.20;;
63906;SDS011;50075;49.484;11.238;2022-08-11T10:20:48;14.82;;;3.58;;
63906;SDS011;50075;49.484;11.238;2022-08-11T10:23:15;23.50;;;4.25;;
63906;SDS011;50075;49.484;11.238;2022-08-11T10:25:59;14.80;;;3.42;;
63906;SDS011;50075;49.484;11.238;2022-08-11T10:28:45;11.93;;;3.25;;
63906;SDS011;50075;49.484;11.238;2022-08-11T10:31:11;17.38;;;3.50;;
63906;SDS011;50075;49.484;11.238;2022-08-11T10:33:56;15.48;;;3.50;;
63906;SDS011;50075;49.484;11.238;2022-08-11T10:36:29;18.30;;;3.90;;
63906;SDS011;50075;49.484;11.238;2022-08-11T10:41:32;15.65;;;3.30;;
63906;SDS011;50075;49.484;11.238;2022-08-11T10:44:17;19.85;;;3.95;;
63906;SDS011;50075;49.484;11.238;2022-08-11T10:46:45;20.05;;;3.58;;
63906;SDS011;50075;49.484;11.238;2022-08-11T10:49:29;24.90;;;4.10;;
63906;SDS011;50075;49.484;11.238;2022-08-11T10:51:56;17.95;;;3.72;;
63906;SDS011;50075;49.484;11.238;2022-08-11T10:54:41;15.35;;;3.58;;
63906;SDS011;50075;49.484;11.238;2022-08-11T10:57:29;21.05;;;4.43;;
63906;SDS011;50075;49.484;11.238;2022-08-11T11:00:13;14.43;;;3.50;;
63906;SDS011;50075;49.484;11.238;2022-08-11T11:02:41;17.38;;;3.60;;
63906;SDS011;50075;49.484;11.238;2022-08-11T11:05:13;13.65;;;3.25;;
63906;SDS011;50075;49.484;11.238;2022-08-11T11:10:20;14.88;;;3.38;;
63906;SDS011;50075;49.484;11.238;2022-08-11T11:12:46;16.45;;;3.30;;
63906;SDS011;50075;49.484;11.238;2022-08-11T11:15:54;13.32;;;3.15;;
63906;SDS011;50075;49.484;11.238;2022-08-11T11:18:39;18.27;;;3.92;;
63906;SDS011;50075;49.484;11.238;2022-08-11T11:21:07;18.10;;;3.35;;
63906;SDS011;50075;49.484;11.238;2022-08-11T11:26:36;19.38;;;3.50;;
63906;SDS011;50075;49.484;11.238;2022-08-11T11:29:18;14.93;;;2.97;;
63906;SDS011;50075;49.484;11.238;2022-08-11T11:37:45;21.00;;;4.30;;
63906;SDS011;50075;49.484;11.238;2022-08-11T11:40:14;21.35;;;4.20;;
63906;SDS011;50075;49.484;11.238;2022-08-11T11:42:46;23.52;;;4.22;;
63906;SDS011;50075;49.484;11.238;2022-08-11T11:45:14;14.75;;;3.45;;
63906;SDS011;50075;49.484;11.238;2022-08-11T11:47:41;17.30;;;3.83;;
63906;SDS011;50075;49.484;11.238;2022-08-11T11:50:08;22.58;;;4.30;;
63906;SDS011;50075;49.484;11.238;2022-08-11T11:52:34;20.55;;;3.40;;
63906;SDS011;50075;49.484;11.238;2022-08-11T11:55:02;22.33;;;4.05;;
63906;SDS011;50075;49.484;11.238;2022-08-11T11:57:29;20.52;;;3.70;;
63906;SDS011;50075;49.484;11.238;2022-08-11T12:00:28;22.48;;;4.20;;
63906;SDS011;50075;49.484;11.238;2022-08-11T12:03:13;20.48;;;3.80;;
63906;SDS011;50075;49.484;11.238;2022-08-11T12:05:40;26.52;;;3.83;;
63906;SDS011;50075;49.484;11.238;2022-08-11T12:08:07;25.50;;;4.72;;
63906;SDS011;50075;49.484;11.238;2022-08-11T12:10:48;21.25;;;4.03;;
63906;SDS011;50075;49.484;11.238;2022-08-11T12:13:39;17.45;;;3.53;;
63906;SDS011;50075;49.484;11.238;2022-08-11T12:16:10;21.20;;;4.13;;
63906;SDS011;50075;49.484;11.238;2022-08-11T12:18:38;18.92;;;3.88;;
63906;SDS011;50075;49.484;11.238;2022-08-11T12:21:06;22.35;;;4.00;;
63906;SDS011;50075;49.484;11.238;2022-08-11T12:23:33;19.65;;;3.90;;
63906;SDS011;50075;49.484;11.238;2022-08-11T12:26:19;20.10;;;4.22;;
63906;SDS011;50075;49.484;11.238;2022-08-11T12:29:23;21.45;;;3.75;;
63906;SDS011;50075;49.484;11.238;2022-08-11T12:31:51;12.65;;;3.20;;
63906;SDS011;50075;49.484;11.238;2022-08-11T12:34:19;21.40;;;4.15;;
63906;SDS011;50075;49.484;11.238;2022-08-11T12:36:49;15.27;;;3.38;;
63906;SDS011;50075;49.484;11.238;2022-08-11T12:39:16;20.52;;;3.58;;
63906;SDS011;50075;49.484;11.238;2022-08-11T12:42:05;16.98;;;3.42;;
63906;SDS011;50075;49.484;11.238;2022-08-11T12:44:50;19.90;;;3.90;;
63906;SDS011;50075;49.484;11.238;2022-08-11T12:47:35;23.50;;;4.57;;
63906;SDS011;50075;49.484;11.238;2022-08-11T12:50:21;19.27;;;4.00;;
63906;SDS011;50075;49.484;11.238;2022-08-11T12:53:05;18.75;;;3.80;;
63906;SDS011;50075;49.484;11.238;2022-08-11T12:55:34;24.52;;;4.25;;
63906;SDS011;50075;49.484;11.238;2022-08-11T12:58:19;24.27;;;4.13;;
63906;SDS011;50075;49.484;11.238;2022-08-11T13:00:45;21.00;;;3.83;;
63906;SDS011;50075;49.484;11.238;2022-08-11T13:03:31;18.92;;;3.50;;
63906;SDS011;50075;49.484;11.238;2022-08-11T13:06:17;22.35;;;4.10;;
63906;SDS011;50075;49.484;11.238;2022-08-11T13:08:47;26.35;;;4.10;;
63906;SDS011;50075;49.484;11.238;2022-08-11T13:11:13;19.48;;;3.70;;
63906;SDS011;50075;49.484;11.238;2022-08-11T13:14:00;26.00;;;3.67;;
63906;SDS011;50075;49.484;11.238;2022-08-11T13:16:30;19.80;;;3.80;;
63906;SDS011;50075;49.484;11.238;2022-08-11T13:19:20;24.00;;;3.90;;
63906;SDS011;50075;49.484;11.238;2022-08-11T13:21:50;25.98;;;4.38;;
63906;SDS011;50075;49.484;11.238;2022-08-11T13:24:16;22.85;;;3.92;;
63906;SDS011;50075;49.484;11.238;2022-08-11T13:26:43;19.80;;;3.65;;
63906;SDS011;50075;49.484;11.238;2022-08-11T13:29:10;16.33;;;3.70;;
63906;SDS011;50075;49.484;11.238;2022-08-11T13:31:36;20.08;;;4.07;;
63906;SDS011;50075;49.484;11.238;2022-08-11T13:34:03;21.80;;;4.10;;
63906;SDS011;50075;49.484;11.238;2022-08-11T13:36:32;18.30;;;3.60;;
63906;SDS011;50075;49.484;11.238;2022-08-11T13:38:58;23.92;;;4.55;;
63906;SDS011;50075;49.484;11.238;2022-08-11T13:41:26;17.25;;;3.53;;
63906;SDS011;50075;49.484;11.238;2022-08-11T13:44:03;25.35;;;4.15;;
63906;SDS011;50075;49.484;11.238;2022-08-11T13:46:30;19.58;;;3.45;;
63906;SDS011;50075;49.484;11.238;2022-08-11T13:48:56;22.75;;;3.58;;
63906;SDS011;50075;49.484;11.238;2022-08-11T13:51:23;17.00;;;3.45;;
63906;SDS011;50075;49.484;11.238;2022-08-11T13:53:58;15.65;;;3.40;;
63906;SDS011;50075;49.484;11.238;2022-08-11T13:56:28;20.15;;;3.75;;
63906;SDS011;50075;49.484;11.238;2022-08-11T13:58:55;20.65;;;3.83;;
63906;SDS011;50075;49.484;11.238;2022-08-11T14:01:31;15.95;;;3.50;;
63906;SDS011;50075;49.484;11.238;2022-08-11T14:04:02;17.70;;;3.92;;
63906;SDS011;50075;49.484;11.238;2022-08-11T14:06:32;15.15;;;3.42;;
63906;SDS011;50075;49.484;11.238;2022-08-11T14:09:00;19.05;;;3.55;;
63906;SDS011;50075;49.484;11.238;2022-08-11T14:11:29;20.05;;;3.92;;
63906;SDS011;50075;49.484;11.238;2022-08-11T14:14:17;21.38;;;4.10;;
63906;SDS011;50075;49.484;11.238;2022-08-11T14:16:46;17.92;;;3.53;;
63906;SDS011;50075;49.484;11.238;2022-08-11T14:19:15;20.60;;;3.90;;
63906;SDS011;50075;49.484;11.238;2022-08-11T14:21:43;18.55;;;3.70;;
63906;SDS011;50075;49.484;11.238;2022-08-11T14:24:29;23.45;;;3.95;;
63906;SDS011;50075;49.484;11.238;2022-08-11T14:26:55;15.70;;;3.35;;
63906;SDS011;50075;49.484;11.238;2022-08-11T14:29:22;23.02;;;4.15;;
63906;SDS011;50075;49.484;11.238;2022-08-11T14:31:52;17.98;;;3.63;;
63906;SDS011;50075;49.484;11.238;2022-08-11T14:34:21;19.35;;;3.42;;
63906;SDS011;50075;49.484;11.238;2022-08-11T14:36:52;16.70;;;3.28;;
63906;SDS011;50075;49.484;11.238;2022-08-11T14:39:21;16.10;;;3.25;;
63906;SDS011;50075;49.484;11.238;2022-08-11T14:41:51;15.98;;;3.33;;
63906;SDS011;50075;49.484;11.238;2022-08-11T14:44:37;22.25;;;3.95;;
63906;SDS011;50075;49.484;11.238;2022-08-11T14:47:24;22.10;;;4.13;;
63906;SDS011;50075;49.484;11.238;2022-08-11T14:49:52;20.00;;;3.88;;
63906;SDS011;50075;49.484;11.238;2022-08-11T14:52:19;20.23;;;3.70;;
63906;SDS011;50075;49.484;11.238;2022-08-11T14:54:46;23.83;;;4.25;;
63906;SDS011;50075;49.484;11.238;2022-08-11T14:57:32;19.00;;;3.60;;
63906;SDS011;50075;49.484;11.238;2022-08-11T15:00:02;26.00;;;4.35;;
63906;SDS011;50075;49.484;11.238;2022-08-11T15:02:32;19.42;;;3.78;;
63906;SDS011;50075;49.484;11.238;2022-08-11T15:05:19;19.50;;;3.30;;
63906;SDS011;50075;49.484;11.238;2022-08-11T15:07:45;25.50;;;4.55;;
63906;SDS011;50075;49.484;11.238;2022-08-11T15:10:11;25.67;;;4.53;;
63906;SDS011;50075;49.484;11.238;2022-08-11T15:12:38;18.42;;;3.63;;
63906;SDS011;50075;49.484;11.238;2022-08-11T15:15:07;28.00;;;4.00;;
63906;SDS011;50075;49.484;11.238;2022-08-11T15:17:54;25.38;;;4.32;;
63906;SDS011;50075;49.484;11.238;2022-08-11T15:20:22;19.10;;;3.35;;
63906;SDS011;50075;49.484;11.238;2022-08-11T15:23:07;19.42;;;3.70;;
63906;SDS011;50075;49.484;11.238;2022-08-11T15:26:03;23.83;;;4.03;;
63906;SDS011;50075;49.484;11.238;2022-08-11T15:28:36;21.65;;;3.80;;
63906;SDS011;50075;49.484;11.238;2022-08-11T15:31:25;19.70;;;4.00;;
63906;SDS011;50075;49.484;11.238;2022-08-11T15:33:58;20.27;;;3.92;;
63906;SDS011;50075;49.484;11.238;2022-08-11T15:36:47;20.30;;;4.05;;
63906;SDS011;50075;49.484;11.238;2022-08-11T15:39:43;21.73;;;4.18;;
63906;SDS011;50075;49.484;11.238;2022-08-11T15:45:36;17.30;;;3.65;;
63906;SDS011;50075;49.484;11.238;2022-08-11T15:48:18;22.42;;;4.15;;
63906;SDS011;50075;49.484;11.238;2022-08-11T15:50:51;17.92;;;3.53;;
63906;SDS011;50075;49.484;11.238;2022-08-11T15:53:25;21.73;;;3.92;;
63906;SDS011;50075;49.484;11.238;2022-08-11T15:55:57;16.73;;;3.42;;
63906;SDS011;50075;49.484;11.238;2022-08-11T15:58:25;18.23;;;3.65;;
63906;SDS011;50075;49.484;11.238;2022-08-11T16:01:14;20.25;;;3.92;;
63906;SDS011;50075;49.484;11.238;2022-08-11T16:04:02;20.75;;;3.88;;
63906;SDS011;50075;49.484;11.238;2022-08-11T16:06:59;15.93;;;3.40;;
63906;SDS011;50075;49.484;11.238;2022-08-11T16:09:43;23.38;;;4.20;;
63906;SDS011;50075;49.484;11.238;2022-08-11T16:12:20;22.85;;;3.80;;
63906;SDS011;50075;49.484;11.238;2022-08-11T16:14:50;15.25;;;3.42;;
63906;SDS011;50075;49.484;11.238;2022-08-11T16:17:41;16.70;;;3.53;;
63906;SDS011;50075;49.484;11.238;2022-08-11T16:20:13;23.35;;;4.05;;
63906;SDS011;50075;49.484;11.238;2022-08-11T16:22:41;19.55;;;4.10;;
63906;SDS011;50075;49.484;11.238;2022-08-11T16:25:18;19.50;;;3.95;;
63906;SDS011;50075;49.484;11.238;2022-08-11T16:28:02;21.48;;;4.13;;
63906;SDS011;50075;49.484;11.238;2022-08-11T16:30:30;26.90;;;4.68;;
63906;SDS011;50075;49.484;11.238;2022-08-11T16:32:57;19.40;;;3.90;;
63906;SDS011;50075;49.484;11.238;2022-08-11T16:35:24;16.70;;;3.55;;
63906;SDS011;50075;49.484;11.238;2022-08-11T16:38:11;20.05;;;3.60;;
63906;SDS011;50075;49.484;11.238;2022-08-11T16:40:57;19.75;;;3.72;;
63906;SDS011;50075;49.484;11.238;2022-08-11T16:43:25;19.05;;;3.92;;
63906;SDS011;50075;49.484;11.238;2022-08-11T16:46:13;20.77;;;4.07;;
63906;SDS011;50075;49.484;11.238;2022-08-11T16:49:00;26.17;;;4.13;;
63906;SDS011;50075;49.484;11.238;2022-08-11T16:51:28;18.98;;;3.90;;
63906;SDS011;50075;49.484;11.238;2022-08-11T16:53:55;26.60;;;5.05;;
63906;SDS011;50075;49.484;11.238;2022-08-11T16:56:22;19.27;;;4.10;;
63906;SDS011;50075;49.484;11.238;2022-08-11T16:58:55;28.77;;;5.00;;
63906;SDS011;50075;49.484;11.238;2022-08-11T17:02:25;17.58;;;3.67;;
63906;SDS011;50075;49.484;11.238;2022-08-11T17:04:37;19.75;;;3.78;;
63906;SDS011;50075;49.484;11.238;2022-08-11T17:07:26;23.75;;;3.95;;
63906;SDS011;50075;49.484;11.238;2022-08-11T17:10:15;23.63;;;4.65;;
63906;SDS011;50075;49.484;11.238;2022-08-11T17:13:02;27.17;;;4.72;;
63906;SDS011;50075;49.484;11.238;2022-08-11T17:15:43;18.95;;;3.83;;
63906;SDS011;50075;49.484;11.238;2022-08-11T17:18:29;18.35;;;4.00;;
63906;SDS011;50075;49.484;11.238;2022-08-11T17:21:11;24.05;;;4.10;;
63906;SDS011;50075;49.484;11.238;2022-08-11T17:23:41;21.17;;;3.70;;
63906;SDS011;50075;49.484;11.238;2022-08-11T17:26:18;25.65;;;4.53;;
63906;SDS011;50075;49.484;11.238;2022-08-11T17:28:47;22.02;;;4.25;;
63906;SDS011;50075;49.484;11.238;2022-08-11T17:31:15;28.05;;;4.57;;
63906;SDS011;50075;49.484;11.238;2022-08-11T17:34:02;21.58;;;4.28;;
63906;SDS011;50075;49.484;11.238;2022-08-11T17:36:51;20.50;;;3.85;;
63906;SDS011;50075;49.484;11.238;2022-08-11T17:39:18;27.25;;;4.50;;
63906;SDS011;50075;49.484;11.238;2022-08-11T17:41:47;27.60;;;4.30;;
63906;SDS011;50075;49.484;11.238;2022-08-11T17:44:33;20.58;;;4.00;;
63906;SDS011;50075;49.484;11.238;2022-08-11T17:47:17;24.73;;;4.50;;
63906;SDS011;50075;49.484;11.238;2022-08-11T17:50:03;25.58;;;4.53;;
63906;SDS011;50075;49.484;11.238;2022-08-11T17:52:30;23.50;;;4.20;;
63906;SDS011;50075;49.484;11.238;2022-08-11T17:55:14;19.92;;;4.18;;
63906;SDS011;50075;49.484;11.238;2022-08-11T17:57:59;19.33;;;3.65;;
63906;SDS011;50075;49.484;11.238;2022-08-11T18:00:45;19.80;;;4.00;;
63906;SDS011;50075;49.484;11.238;2022-08-11T18:03:15;19.67;;;4.00;;
63906;SDS011;50075;49.484;11.238;2022-08-11T18:06:08;19.58;;;3.90;;
63906;SDS011;50075;49.484;11.238;2022-08-11T18:08:37;26.58;;;4.93;;
63906;SDS011;50075;49.484;11.238;2022-08-11T18:11:29;26.40;;;4.95;;
63906;SDS011;50075;49.484;11.238;2022-08-11T18:14:15;23.15;;;4.13;;
63906;SDS011;50075;49.484;11.238;2022-08-11T18:17:03;27.88;;;4.70;;
63906;SDS011;50075;49.484;11.238;2022-08-11T18:19:47;27.70;;;4.88;;
63906;SDS011;50075;49.484;11.238;2022-08-11T18:22:35;24.95;;;4.28;;
63906;SDS011;50075;49.484;11.238;2022-08-11T18:25:29;20.92;;;4.00;;
63906;SDS011;50075;49.484;11.238;2022-08-11T18:28:16;19.08;;;3.88;;
63906;SDS011;50075;49.484;11.238;2022-08-11T18:31:04;18.35;;;3.92;;
63906;SDS011;50075;49.484;11.238;2022-08-11T18:33:53;29.83;;;5.38;;
63906;SDS011;50075;49.484;11.238;2022-08-11T18:36:44;18.52;;;3.88;;
63906;SDS011;50075;49.484;11.238;2022-08-11T18:39:43;19.42;;;3.88;;
63906;SDS011;50075;49.484;11.238;2022-08-11T18:42:31;18.65;;;4.00;;
63906;SDS011;50075;49.484;11.238;2022-08-11T18:45:16;20.58;;;4.15;;
63906;SDS011;50075;49.484;11.238;2022-08-11T18:48:07;29.33;;;4.82;;
63906;SDS011;50075;49.484;11.238;2022-08-11T18:50:55;22.20;;;4.15;;
63906;SDS011;50075;49.484;11.238;2022-08-11T18:53:43;38.22;;;6.00;;
63906;SDS011;50075;49.484;11.238;2022-08-11T18:56:32;26.00;;;4.63;;
63906;SDS011;50075;49.484;11.238;2022-08-11T18:59:18;22.20;;;4.20;;
63906;SDS011;50075;49.484;11.238;2022-08-11T19:02:06;41.25;;;6.05;;
63906;SDS011;50075;49.484;11.238;2022-08-11T19:04:51;34.42;;;5.22;;
63906;SDS011;50075;49.484;11.238;2022-08-11T19:07:38;20.42;;;3.92;;
63906;SDS011;50075;49.484;11.238;2022-08-11T19:10:24;35.38;;;5.38;;
63906;SDS011;50075;49.484;11.238;2022-08-11T19:13:08;36.83;;;5.75;;